Minerva Grace — SVBN7 — position and weather

sailwx.info

Track history (hours):
 
Tides and Currents Weather Stations Pressure Air Temp Water Temp Dewpoint Dewpoint Depression Visibility Wind Speed Wind Dir Waves Ship Positions

Minerva Grace

Last reported at 2017-May-30 01:28 UTC. Time now 2017-May-30 01:28 UTC.
Position N 51°55' E 003°32'.

Length 183 m; draft 10.1 m.

Type: Ship (hazmat cat A). MMSI: 215925000.

Date/timePositionNaut miles runAvg speedWind from/ knotsBaromVisibWave heightAir tempDewpointWater temp
2017-May-30 01:28N 51°55' E 003°32'0 0.0
2017-May-30 00:58N 51°55' E 003°32'0 0.0
2017-May-30 00:28N 51°55' E 003°32'0 0.1
2017-May-29 23:58N 51°55' E 003°32'0 0.0
2017-May-29 23:25N 51°55' E 003°32'0 0.1
2017-May-29 22:50N 51°55' E 003°32'1 2.0
2017-May-29 22:30N 51°55' E 003°31'3 5.8
2017-May-29 22:00N 51°55' E 003°26'5 9.5
2017-May-29 21:30N 51°54' E 003°19'510.2
2017-May-29 21:00N 51°53' E 003°11'510.6
2017-May-29 20:30N 51°51' E 003°02'510.1
2017-May-29 19:58N 51°50' E 002°54'910.9
2017-May-29 19:11N 51°47' E 002°41'211.4
2017-May-29 19:00N 51°46' E 002°38'611.7
2017-May-29 18:30N 51°42' E 002°31'5 9.4
2017-May-29 18:00N 51°39' E 002°27'4 8.4
2017-May-29 17:31N 51°35' E 002°22'9 8.6
2017-May-29 16:30N 51°28' E 002°14'4 8.7
2017-May-29 16:01N 51°24' E 002°12'4 8.6
2017-May-29 15:31N 51°20' E 002°09'4 8.8
2017-May-29 15:00N 51°16' E 002°06'4 8.6
2017-May-29 14:31N 51°13' E 002°03'1211.5
2017-May-29 13:31N 51°07' E 001°47'713.9
2017-May-29 13:00N 51°02' E 001°39'713.2
2017-May-29 12:30N 50°57' E 001°32'1611.5
2017-May-29 11:07N 50°42' E 001°23'210.9
2017-May-29 10:59N 50°41' E 001°21'4311.5
2017-May-29 07:17N 50°22' E 000°21'410.1
2017-May-29 06:53N 50°21' E 000°15'4 9.3
2017-May-29 06:29N 50°20' E 000°10'4 8.4
2017-May-29 06:00N 50°18' E 000°04'4 8.4
2017-May-29 05:30N 50°17' W 000°03'4 8.3
2017-May-29 05:00N 50°16' W 000°09'4 8.3
2017-May-29 04:30N 50°15' W 000°15'4 8.1
2017-May-29 04:00N 50°14' W 000°21'4 8.1
2017-May-29 03:30N 50°13' W 000°27'4 8.1
2017-May-29 03:00N 50°12' W 000°33'4 8.4
2017-May-29 02:30N 50°11' W 000°40'4 8.9
2017-May-29 02:00N 50°09' W 000°46'5 9.4
2017-May-29 01:30N 50°08' W 000°53'510.3
2017-May-29 01:00N 50°07' W 001°01'1011.3
2017-May-29 00:06N 50°05' W 001°17'412.6
2017-May-28 23:44N 50°04' W 001°24'413.1
2017-May-28 23:24N 50°03' W 001°30'5113.6
2017-May-28 19:41N 49°51' W 002°47'211.9
2017-May-28 19:30N 49°50' W 002°50'611.6
2017-May-28 19:00N 49°49' W 002°59'611.2
2017-May-28 18:29N 49°47' W 003°08'511.1
2017-May-28 18:00N 49°46' W 003°16'510.9
2017-May-28 17:30N 49°45' W 003°24'510.5
2017-May-28 17:00N 49°44' W 003°32'510.1
2017-May-28 16:30N 49°43' W 003°39'5 9.8
2017-May-28 16:00N 49°42' W 003°47'5 9.5
2017-May-28 15:30N 49°41' W 003°54'6 8.9
2017-May-28 14:49N 49°40' W 004°03'10 8.4
2017-May-28 13:39N 49°38' W 004°18'3 8.1
2017-May-28 13:17N 49°37' W 004°22'3 7.9
2017-May-28 12:58N 49°37' W 004°26'8 7.7
2017-May-28 11:57N 49°35' W 004°38'5 7.9
2017-May-28 11:22N 49°34' W 004°45'3 8.4
2017-May-28 11:00N 49°33' W 004°50'4 8.8
2017-May-28 10:30N 49°32' W 004°56'5 9.3
2017-May-28 10:01N 49°31' W 005°03'5 9.7
2017-May-28 09:30N 49°30' W 005°10'510.1
2017-May-28 09:01N 49°29' W 005°18'510.3
2017-May-28 08:30N 49°27' W 005°26'510.2
2017-May-28 08:00N 49°27' W 005°33'510.6
2017-May-28 07:30N 49°26' W 005°41'510.8
2017-May-28 07:00N 49°25' W 005°49'611.1
2017-May-28 06:30N 49°23' W 005°58'510.3
2017-May-28 06:00N 49°22' W 006°06'1 1.0
2017-May-28 05:29N 49°22' W 006°06'0 1.0
2017-May-28 04:59N 49°22' W 006°07'0 1.0
2017-May-28 04:30N 49°22' W 006°08'0 0.9
2017-May-28 04:00N 49°22' W 006°08'0 0.8
2017-May-28 03:30N 49°22' W 006°09'0 0.4
2017-May-28 02:59N 49°22' W 006°09'0 0.3
2017-May-28 02:30N 49°22' W 006°09'0 0.4
2017-May-28 01:57N 49°22' W 006°09'0 0.6
2017-May-28 01:31N 49°22' W 006°09'0 0.4
2017-May-28 00:59N 49°21' W 006°09'0 0.4
2017-May-28 00:31N 49°21' W 006°09'0 0.4
2017-May-28 00:01N 49°22' W 006°08'0 0.5
2017-May-27 23:28N 49°22' W 006°08'0 0.6
2017-May-27 23:00N 49°22' W 006°08'0 0.5
2017-May-27 22:29N 49°22' W 006°07'0 0.4
2017-May-27 21:58N 49°22' W 006°07'0 0.4
2017-May-27 21:10N 49°23' W 006°08'0 0.6
2017-May-27 20:50N 49°23' W 006°08'0 0.7
2017-May-27 20:30N 49°23' W 006°08'1 1.0
2017-May-27 19:59N 49°23' W 006°09'3 1.5
2017-May-27 18:19N 49°22' W 006°13'1 2.1
2017-May-27 18:00N 49°21' W 006°13'2 2.2
2017-May-27 17:00N 49°20' W 006°16'3 2.4
2017-May-27 15:55N 49°18' W 006°19'1 2.4
2017-May-27 15:25N 49°17' W 006°20'1 2.4
2017-May-27 14:53N 49°16' W 006°21'1 2.2
2017-May-27 14:29N 49°16' W 006°22'2 1.8
2017-May-27 13:30N 49°14' W 006°23'1 1.3
2017-May-27 12:59N 49°13' W 006°24'1 0.8
2017-May-27 11:59N 49°13' W 006°24'477 9.9
2017-May-25 11:47N 41°39' W 009°52'411.3
2017-May-25 11:25N 41°35' W 009°52'711.0
2017-May-25 10:49N 41°28' W 009°52'511.1
2017-May-25 10:21N 41°23' W 009°51'411.7
2017-May-25 10:00N 41°19' W 009°51'611.7
2017-May-25 09:30N 41°13' W 009°51'611.3
2017-May-25 08:59N 41°07' W 009°50'611.4
2017-May-25 08:25N 41°01' W 009°50'511.6
2017-May-25 08:00N 40°56' W 009°50'611.8
2017-May-25 07:29N 40°50' W 009°50'611.7
2017-May-25 07:00N 40°44' W 009°50'611.6
2017-May-25 06:30N 40°39' W 009°50'611.4
2017-May-25 06:00N 40°33' W 009°50'611.6
2017-May-25 05:30N 40°27' W 009°50'611.6
2017-May-25 05:00N 40°21' W 009°50'611.4
2017-May-25 04:30N 40°16' W 009°50'611.6
2017-May-25 04:00N 40°10' W 009°50'611.6
2017-May-25 03:30N 40°04' W 009°50'711.8
2017-May-25 02:57N 39°57' W 009°50'511.9
2017-May-25 02:30N 39°52' W 009°50'611.8
2017-May-25 02:00N 39°46' W 009°51'612.0
2017-May-25 01:30N 39°40' W 009°51'711.7
2017-May-25 00:55N 39°33' W 009°51'611.4
2017-May-25 00:27N 39°28' W 009°51'511.4
2017-May-25 00:00N 39°23' W 009°51'611.6
2017-May-24 23:30N 39°17' W 009°51'611.6
2017-May-24 23:00N 39°11' W 009°51'611.5
2017-May-24 22:30N 39°06' W 009°51'611.4
2017-May-24 22:00N 38°60' W 009°52'611.5
2017-May-24 21:30N 38°54' W 009°52'611.4
2017-May-24 21:00N 38°48' W 009°52'611.4
2017-May-24 20:30N 38°43' W 009°51'611.2
2017-May-24 20:00N 38°37' W 009°49'611.0
2017-May-24 19:30N 38°32' W 009°47'611.3
2017-May-24 19:00N 38°27' W 009°44'611.5
2017-May-24 18:30N 38°22' W 009°41'611.4
2017-May-24 18:00N 38°16' W 009°39'611.6
2017-May-24 17:30N 38°11' W 009°36'611.7
2017-May-24 17:00N 38°06' W 009°33'611.5
2017-May-24 16:30N 38°00' W 009°29'611.2
2017-May-24 16:00N 37°55' W 009°27'611.6
2017-May-24 15:30N 37°50' W 009°24'611.4
2017-May-24 15:00N 37°45' W 009°21'611.4
2017-May-24 14:30N 37°40' W 009°17'5 5.5
2017-May-24 13:30N 37°35' W 009°13'1 1.1
2017-May-24 13:00N 37°36' W 009°13'1 1.0
2017-May-24 12:30N 37°36' W 009°13'1 1.1
2017-May-24 12:00N 37°37' W 009°12'1 1.1
2017-May-24 11:30N 37°37' W 009°12'1 1.1
2017-May-24 11:00N 37°38' W 009°12'1 1.0
2017-May-24 10:30N 37°38' W 009°12'0 1.0
2017-May-24 10:00N 37°39' W 009°11'1 1.0
2017-May-24 09:30N 37°39' W 009°11'1 1.0
2017-May-24 09:00N 37°40' W 009°11'1 1.1
2017-May-24 08:30N 37°40' W 009°11'1 1.2
2017-May-24 08:00N 37°41' W 009°11'1 1.1
2017-May-24 07:30N 37°41' W 009°12'1 1.3
2017-May-24 07:00N 37°42' W 009°12'1 1.4
2017-May-24 06:30N 37°43' W 009°12'1 1.4
2017-May-24 06:00N 37°43' W 009°13'1 1.3
2017-May-24 05:30N 37°44' W 009°13'1 1.2
2017-May-24 05:00N 37°44' W 009°13'1 1.1
2017-May-24 04:30N 37°45' W 009°14'1 1.0
2017-May-24 04:00N 37°45' W 009°14'1 1.1
2017-May-24 03:30N 37°46' W 009°14'1 1.1
2017-May-24 03:00N 37°46' W 009°15'1 1.0
2017-May-24 02:30N 37°46' W 009°16'0 0.9
2017-May-24 02:00N 37°46' W 009°16'0 0.9
2017-May-24 01:30N 37°46' W 009°17'0 0.6
2017-May-24 01:00N 37°46' W 009°17'0 0.4
2017-May-24 00:30N 37°46' W 009°17'0 0.5
2017-May-24 00:00N 37°47' W 009°17'0 0.5
2017-May-23 23:30N 37°47' W 009°18'0 0.9
2017-May-23 23:00N 37°47' W 009°18'1 1.0
2017-May-23 22:30N 37°48' W 009°17'1 1.1
2017-May-23 22:00N 37°48' W 009°17'1 1.2
2017-May-23 21:30N 37°49' W 009°17'1 1.4
2017-May-23 21:00N 37°50' W 009°17'1 1.5
2017-May-23 20:30N 37°50' W 009°17'1 1.5
2017-May-23 20:00N 37°51' W 009°17'1 1.5
2017-May-23 19:30N 37°52' W 009°17'1 1.6
2017-May-23 19:00N 37°53' W 009°17'1 1.6
2017-May-23 18:30N 37°53' W 009°17'1 1.6
2017-May-23 18:00N 37°54' W 009°17'1 1.4
2017-May-23 17:30N 37°55' W 009°17'1 1.5
2017-May-23 17:00N 37°56' W 009°18'1 1.4
2017-May-23 16:30N 37°56' W 009°18'1 1.5
2017-May-23 16:00N 37°57' W 009°18'1 1.4
2017-May-23 15:30N 37°58' W 009°18'1 1.5
2017-May-23 15:00N 37°58' W 009°18'1 1.5
2017-May-23 14:30N 37°59' W 009°19'1 1.4
2017-May-23 13:30N 38°01' W 009°19'1 1.2
2017-May-23 13:00N 38°01' W 009°19'1 1.1
2017-May-23 12:30N 38°02' W 009°19'2 3.3
2017-May-23 12:00N 38°02' W 009°17'510.0
2017-May-23 11:30N 38°02' W 009°10'2 3.6
2017-May-23 11:00N 38°01' W 009°08'1 1.1
2017-May-23 10:30N 38°01' W 009°09'1 1.2
2017-May-23 10:00N 38°02' W 009°10'1 1.2
2017-May-23 09:30N 38°02' W 009°10'1 1.2
2017-May-23 09:00N 38°02' W 009°11'1 1.1
2017-May-23 08:30N 38°03' W 009°12'1 1.1
2017-May-23 08:00N 38°03' W 009°12'1 1.1
2017-May-23 07:00N 38°03' W 009°13'0 0.8
2017-May-23 06:30N 38°03' W 009°14'1 2.4
2017-May-23 06:00N 38°02' W 009°14'3 5.8
2017-May-23 05:30N 37°59' W 009°15'3 5.8
2017-May-23 05:00N 37°56' W 009°15'3 5.7
2017-May-23 04:30N 37°53' W 009°15'3 5.5
2017-May-23 04:00N 37°51' W 009°16'3 5.4
2017-May-23 03:30N 37°48' W 009°16'3 5.4
2017-May-23 03:00N 37°45' W 009°16'3 5.2
2017-May-23 02:30N 37°43' W 009°16'3 5.0
2017-May-23 02:00N 37°40' W 009°17'2 4.9
2017-May-23 01:30N 37°38' W 009°17'2 4.6
2017-May-23 01:00N 37°35' W 009°17'2 4.7
2017-May-23 00:30N 37°33' W 009°18'2 4.7
2017-May-23 00:00N 37°31' W 009°18'2 4.3
2017-May-22 23:30N 37°28' W 009°18'2 4.3
2017-May-22 23:00N 37°26' W 009°18'2 3.7
2017-May-22 22:30N 37°25' W 009°20'2 5.0
2017-May-22 22:00N 37°25' W 009°23'3 5.0
2017-May-22 21:30N 37°25' W 009°26'3 5.1
2017-May-22 21:00N 37°25' W 009°29'1 2.7
2017-May-22 20:30N 37°26' W 009°30'1 2.6
2017-May-22 20:00N 37°27' W 009°29'1 2.6
2017-May-22 19:30N 37°28' W 009°29'1 2.7
2017-May-22 19:00N 37°30' W 009°29'1 2.7
2017-May-22 18:30N 37°31' W 009°28'1 2.7
2017-May-22 18:00N 37°32' W 009°27'1 2.6
2017-May-22 17:30N 37°33' W 009°27'1 2.4
2017-May-22 17:00N 37°35' W 009°26'1 2.4
2017-May-22 16:30N 37°36' W 009°26'1 2.1
2017-May-22 16:00N 37°37' W 009°25'5 9.7
2017-May-22 15:30N 37°35' W 009°19'611.4
2017-May-22 15:00N 37°35' W 009°12'4 3.6
2017-May-22 14:00N 37°35' W 009°07'1 1.5
2017-May-22 13:30N 37°35' W 009°08'1 1.5
2017-May-22 13:00N 37°35' W 009°09'1 1.3
2017-May-22 12:28N 37°36' W 009°10'1 1.2
2017-May-22 12:00N 37°36' W 009°11'1 1.2
2017-May-22 11:30N 37°36' W 009°11'1 1.1
2017-May-22 11:00N 37°36' W 009°12'1 1.0
2017-May-22 10:30N 37°37' W 009°12'1 1.0
2017-May-22 10:00N 37°37' W 009°13'1 1.2
2017-May-22 09:30N 37°37' W 009°14'1 1.3
2017-May-22 09:00N 37°38' W 009°14'1 1.2
2017-May-22 08:30N 37°38' W 009°15'1 1.1
2017-May-22 08:00N 37°38' W 009°16'1 1.1
2017-May-22 07:30N 37°38' W 009°16'0 0.9
2017-May-22 07:00N 37°38' W 009°17'0 0.9
2017-May-22 06:30N 37°39' W 009°17'0 0.9
2017-May-22 06:00N 37°39' W 009°18'0 0.8
2017-May-22 05:30N 37°39' W 009°18'0 0.7
2017-May-22 04:57N 37°39' W 009°19'0 0.7
2017-May-22 04:30N 37°39' W 009°19'0 0.7
2017-May-22 04:00N 37°39' W 009°20'0 0.9
2017-May-22 03:30N 37°40' W 009°20'0 0.9
2017-May-22 03:00N 37°40' W 009°21'1 1.0
2017-May-22 02:30N 37°40' W 009°21'0 1.0
2017-May-22 02:00N 37°41' W 009°21'0 1.0
2017-May-22 01:30N 37°41' W 009°22'0 0.9
2017-May-22 01:00N 37°41' W 009°22'0 1.0
2017-May-22 00:30N 37°42' W 009°23'0 1.0
2017-May-22 00:00N 37°42' W 009°23'1 1.0
2017-May-21 23:30N 37°42' W 009°24'1 1.0
2017-May-21 23:00N 37°42' W 009°24'1 1.0
2017-May-21 22:30N 37°42' W 009°25'1 1.1
2017-May-21 22:00N 37°42' W 009°26'1 1.0
2017-May-21 21:30N 37°42' W 009°26'1 1.1
2017-May-21 21:00N 37°43' W 009°27'1 1.2
2017-May-21 20:30N 37°43' W 009°28'1 1.1
2017-May-21 20:00N 37°43' W 009°29'1 1.1
2017-May-21 19:30N 37°43' W 009°29'1 1.1
2017-May-21 19:00N 37°43' W 009°30'1 1.1
2017-May-21 18:30N 37°43' W 009°31'1 1.1
2017-May-21 17:59N 37°43' W 009°31'0 0.9
2017-May-21 17:30N 37°43' W 009°32'0 0.6
2017-May-21 17:00N 37°43' W 009°32'0 0.5
2017-May-21 16:26N 37°43' W 009°33'0 0.4
2017-May-21 16:00N 37°43' W 009°33'0 0.5
2017-May-21 15:28N 37°42' W 009°33'0 0.6
2017-May-21 15:00N 37°42' W 009°32'0 0.7
2017-May-21 14:21N 37°42' W 009°32'1 0.9
2017-May-21 13:30N 37°41' W 009°32'1 1.2
2017-May-21 13:00N 37°41' W 009°31'1 1.3
2017-May-21 12:30N 37°40' W 009°30'1 1.4
2017-May-21 12:00N 37°40' W 009°30'1 1.7
2017-May-21 11:30N 37°40' W 009°29'1 1.7
2017-May-21 11:00N 37°39' W 009°28'1 1.6
2017-May-21 10:30N 37°39' W 009°27'1 1.4
2017-May-21 10:00N 37°39' W 009°26'1 1.2
2017-May-21 09:30N 37°39' W 009°25'1 0.5
2017-May-21 08:23N 37°38' W 009°25'0 0.1
2017-May-21 08:00N 37°38' W 009°25'0 0.3
2017-May-21 07:30N 37°38' W 009°25'1 1.0
2017-May-21 07:00N 37°38' W 009°24'0 0.8
2017-May-21 06:28N 37°39' W 009°24'0 0.6
2017-May-21 06:00N 37°39' W 009°24'0 0.7
2017-May-21 05:30N 37°39' W 009°24'0 0.7
2017-May-21 05:00N 37°40' W 009°24'0 0.9
2017-May-21 04:30N 37°40' W 009°24'0 0.9
2017-May-21 04:00N 37°41' W 009°23'0 1.0
2017-May-21 03:30N 37°41' W 009°23'0 0.9
2017-May-21 03:00N 37°41' W 009°23'1 1.1
2017-May-21 02:30N 37°42' W 009°23'1 1.1
2017-May-21 02:00N 37°42' W 009°22'1 1.1
2017-May-21 01:30N 37°43' W 009°22'1 1.2
2017-May-21 01:00N 37°44' W 009°22'1 1.1
2017-May-21 00:30N 37°44' W 009°22'1 1.1
2017-May-21 00:00N 37°45' W 009°22'1 1.1
2017-May-20 23:30N 37°45' W 009°22'1 1.0
2017-May-20 23:00N 37°46' W 009°22'1 1.1
2017-May-20 22:30N 37°46' W 009°22'1 1.1
2017-May-20 22:00N 37°47' W 009°21'1 1.1
2017-May-20 21:30N 37°47' W 009°21'1 1.5
2017-May-20 21:00N 37°48' W 009°21'1 1.5
2017-May-20 20:30N 37°49' W 009°21'1 1.2
2017-May-20 20:00N 37°49' W 009°21'1 1.3
2017-May-20 19:30N 37°50' W 009°21'1 1.6
2017-May-20 19:00N 37°51' W 009°20'1 1.8
2017-May-20 18:30N 37°52' W 009°20'1 1.7
2017-May-20 18:00N 37°52' W 009°19'1 2.5
2017-May-20 17:30N 37°53' W 009°18'611.1
2017-May-20 17:00N 37°57' W 009°13'3 5.4
2017-May-20 16:30N 37°59' W 009°12'1 1.7
2017-May-20 16:00N 38°00' W 009°13'1 1.6
2017-May-20 15:30N 38°01' W 009°13'1 1.5
2017-May-20 15:00N 38°01' W 009°14'1 1.6
2017-May-20 14:30N 38°01' W 009°15'1 1.3
2017-May-20 13:30N 38°02' W 009°16'1 1.2
2017-May-20 13:00N 38°03' W 009°17'0 0.9
2017-May-20 12:30N 38°03' W 009°17'3 5.1
2017-May-20 12:00N 38°03' W 009°14'4 7.0
2017-May-20 11:30N 38°02' W 009°10'1 1.4
2017-May-20 11:00N 38°03' W 009°10'1 1.6
2017-May-20 10:30N 38°04' W 009°11'1 1.5
2017-May-20 10:00N 38°04' W 009°11'1 1.5
2017-May-20 09:30N 38°05' W 009°12'1 1.6
2017-May-20 09:00N 38°06' W 009°12'1 1.6
2017-May-20 08:30N 38°06' W 009°13'1 1.5
2017-May-20 08:00N 38°07' W 009°13'1 1.5
2017-May-20 07:30N 38°08' W 009°13'1 1.4
2017-May-20 07:00N 38°08' W 009°14'1 1.5
2017-May-20 06:30N 38°09' W 009°14'1 2.0
2017-May-20 06:00N 38°10' W 009°14'1 2.8
2017-May-20 05:30N 38°12' W 009°14'3 5.2
2017-May-20 05:00N 38°09' W 009°15'3 5.0
2017-May-20 04:30N 38°06' W 009°15'3 5.1
2017-May-20 04:00N 38°04' W 009°15'3 5.3
2017-May-20 03:30N 38°01' W 009°15'3 5.3
2017-May-20 03:00N 37°59' W 009°15'2 4.9
2017-May-20 02:30N 37°56' W 009°15'2 4.8
2017-May-20 02:00N 37°54' W 009°15'2 4.6
2017-May-20 01:30N 37°51' W 009°15'2 4.5
2017-May-20 01:00N 37°49' W 009°15'  
Track history (hours):
 
Tides and Currents Weather Stations Pressure Air Temp Water Temp Dewpoint Dewpoint Depression Visibility Wind Speed Wind Dir Waves Ship Positions

Minerva Grace

Last reported at 2017-May-30 01:28 UTC. Time now 2017-May-30 01:28 UTC.
Position N 51°55' E 003°32'.

Length 183 m; draft 10.1 m.

Type: Ship (hazmat cat A). MMSI: 215925000.

Date/timePositionNaut miles runAvg speedWind from/ knotsBaromVisibWave heightAir tempDewpointWater temp
2017-May-30 01:28N 51°55' E 003°32'0 0.0
2017-May-30 00:58N 51°55' E 003°32'0 0.0
2017-May-30 00:28N 51°55' E 003°32'0 0.1
2017-May-29 23:58N 51°55' E 003°32'0 0.0
2017-May-29 23:25N 51°55' E 003°32'0 0.1
2017-May-29 22:50N 51°55' E 003°32'1 2.0
2017-May-29 22:30N 51°55' E 003°31'3 5.8
2017-May-29 22:00N 51°55' E 003°26'5 9.5
2017-May-29 21:30N 51°54' E 003°19'510.2
2017-May-29 21:00N 51°53' E 003°11'510.6
2017-May-29 20:30N 51°51' E 003°02'510.1
2017-May-29 19:58N 51°50' E 002°54'910.9
2017-May-29 19:11N 51°47' E 002°41'211.4
2017-May-29 19:00N 51°46' E 002°38'611.7
2017-May-29 18:30N 51°42' E 002°31'5 9.4
2017-May-29 18:00N 51°39' E 002°27'4 8.4
2017-May-29 17:31N 51°35' E 002°22'9 8.6
2017-May-29 16:30N 51°28' E 002°14'4 8.7
2017-May-29 16:01N 51°24' E 002°12'4 8.6
2017-May-29 15:31N 51°20' E 002°09'4 8.8
2017-May-29 15:00N 51°16' E 002°06'4 8.6
2017-May-29 14:31N 51°13' E 002°03'1211.5
2017-May-29 13:31N 51°07' E 001°47'713.9
2017-May-29 13:00N 51°02' E 001°39'713.2
2017-May-29 12:30N 50°57' E 001°32'1611.5
2017-May-29 11:07N 50°42' E 001°23'210.9
2017-May-29 10:59N 50°41' E 001°21'4311.5
2017-May-29 07:17N 50°22' E 000°21'410.1
2017-May-29 06:53N 50°21' E 000°15'4 9.3
2017-May-29 06:29N 50°20' E 000°10'4 8.4
2017-May-29 06:00N 50°18' E 000°04'4 8.4
2017-May-29 05:30N 50°17' W 000°03'4 8.3
2017-May-29 05:00N 50°16' W 000°09'4 8.3
2017-May-29 04:30N 50°15' W 000°15'4 8.1
2017-May-29 04:00N 50°14' W 000°21'4 8.1
2017-May-29 03:30N 50°13' W 000°27'4 8.1
2017-May-29 03:00N 50°12' W 000°33'4 8.4
2017-May-29 02:30N 50°11' W 000°40'4 8.9
2017-May-29 02:00N 50°09' W 000°46'5 9.4
2017-May-29 01:30N 50°08' W 000°53'510.3
2017-May-29 01:00N 50°07' W 001°01'1011.3
2017-May-29 00:06N 50°05' W 001°17'412.6
2017-May-28 23:44N 50°04' W 001°24'413.1
2017-May-28 23:24N 50°03' W 001°30'5113.6
2017-May-28 19:41N 49°51' W 002°47'211.9
2017-May-28 19:30N 49°50' W 002°50'611.6
2017-May-28 19:00N 49°49' W 002°59'611.2
2017-May-28 18:29N 49°47' W 003°08'511.1
2017-May-28 18:00N 49°46' W 003°16'510.9
2017-May-28 17:30N 49°45' W 003°24'510.5
2017-May-28 17:00N 49°44' W 003°32'510.1
2017-May-28 16:30N 49°43' W 003°39'5 9.8
2017-May-28 16:00N 49°42' W 003°47'5 9.5
2017-May-28 15:30N 49°41' W 003°54'6 8.9
2017-May-28 14:49N 49°40' W 004°03'10 8.4
2017-May-28 13:39N 49°38' W 004°18'3 8.1
2017-May-28 13:17N 49°37' W 004°22'3 7.9
2017-May-28 12:58N 49°37' W 004°26'8 7.7
2017-May-28 11:57N 49°35' W 004°38'5 7.9
2017-May-28 11:22N 49°34' W 004°45'3 8.4
2017-May-28 11:00N 49°33' W 004°50'4 8.8
2017-May-28 10:30N 49°32' W 004°56'5 9.3
2017-May-28 10:01N 49°31' W 005°03'5 9.7
2017-May-28 09:30N 49°30' W 005°10'510.1
2017-May-28 09:01N 49°29' W 005°18'510.3
2017-May-28 08:30N 49°27' W 005°26'510.2
2017-May-28 08:00N 49°27' W 005°33'510.6
2017-May-28 07:30N 49°26' W 005°41'510.8
2017-May-28 07:00N 49°25' W 005°49'611.1
2017-May-28 06:30N 49°23' W 005°58'510.3
2017-May-28 06:00N 49°22' W 006°06'1 1.0
2017-May-28 05:29N 49°22' W 006°06'0 1.0
2017-May-28 04:59N 49°22' W 006°07'0 1.0
2017-May-28 04:30N 49°22' W 006°08'0 0.9
2017-May-28 04:00N 49°22' W 006°08'0 0.8
2017-May-28 03:30N 49°22' W 006°09'0 0.4
2017-May-28 02:59N 49°22' W 006°09'0 0.3
2017-May-28 02:30N 49°22' W 006°09'0 0.4
2017-May-28 01:57N 49°22' W 006°09'0 0.6
2017-May-28 01:31N 49°22' W 006°09'0 0.4
2017-May-28 00:59N 49°21' W 006°09'0 0.4
2017-May-28 00:31N 49°21' W 006°09'0 0.4
2017-May-28 00:01N 49°22' W 006°08'0 0.5
2017-May-27 23:28N 49°22' W 006°08'0 0.6
2017-May-27 23:00N 49°22' W 006°08'0 0.5
2017-May-27 22:29N 49°22' W 006°07'0 0.4
2017-May-27 21:58N 49°22' W 006°07'0 0.4
2017-May-27 21:10N 49°23' W 006°08'0 0.6
2017-May-27 20:50N 49°23' W 006°08'0 0.7
2017-May-27 20:30N 49°23' W 006°08'1 1.0
2017-May-27 19:59N 49°23' W 006°09'3 1.5
2017-May-27 18:19N 49°22' W 006°13'1 2.1
2017-May-27 18:00N 49°21' W 006°13'2 2.2
2017-May-27 17:00N 49°20' W 006°16'3 2.4
2017-May-27 15:55N 49°18' W 006°19'1 2.4
2017-May-27 15:25N 49°17' W 006°20'1 2.4
2017-May-27 14:53N 49°16' W 006°21'1 2.2
2017-May-27 14:29N 49°16' W 006°22'2 1.8
2017-May-27 13:30N 49°14' W 006°23'1 1.3
2017-May-27 12:59N 49°13' W 006°24'1 0.8
2017-May-27 11:59N 49°13' W 006°24'477 9.9
2017-May-25 11:47N 41°39' W 009°52'411.3
2017-May-25 11:25N 41°35' W 009°52'711.0
2017-May-25 10:49N 41°28' W 009°52'511.1
2017-May-25 10:21N 41°23' W 009°51'411.7
2017-May-25 10:00N 41°19' W 009°51'611.7
2017-May-25 09:30N 41°13' W 009°51'611.3
2017-May-25 08:59N 41°07' W 009°50'611.4
2017-May-25 08:25N 41°01' W 009°50'511.6
2017-May-25 08:00N 40°56' W 009°50'611.8
2017-May-25 07:29N 40°50' W 009°50'611.7
2017-May-25 07:00N 40°44' W 009°50'611.6
2017-May-25 06:30N 40°39' W 009°50'611.4
2017-May-25 06:00N 40°33' W 009°50'611.6
2017-May-25 05:30N 40°27' W 009°50'611.6
2017-May-25 05:00N 40°21' W 009°50'611.4
2017-May-25 04:30N 40°16' W 009°50'611.6
2017-May-25 04:00N 40°10' W 009°50'611.6
2017-May-25 03:30N 40°04' W 009°50'711.8
2017-May-25 02:57N 39°57' W 009°50'511.9
2017-May-25 02:30N 39°52' W 009°50'611.8
2017-May-25 02:00N 39°46' W 009°51'612.0
2017-May-25 01:30N 39°40' W 009°51'711.7
2017-May-25 00:55N 39°33' W 009°51'611.4
2017-May-25 00:27N 39°28' W 009°51'511.4
2017-May-25 00:00N 39°23' W 009°51'611.6
2017-May-24 23:30N 39°17' W 009°51'611.6
2017-May-24 23:00N 39°11' W 009°51'611.5
2017-May-24 22:30N 39°06' W 009°51'611.4
2017-May-24 22:00N 38°60' W 009°52'611.5
2017-May-24 21:30N 38°54' W 009°52'611.4
2017-May-24 21:00N 38°48' W 009°52'611.4
2017-May-24 20:30N 38°43' W 009°51'611.2
2017-May-24 20:00N 38°37' W 009°49'611.0
2017-May-24 19:30N 38°32' W 009°47'611.3
2017-May-24 19:00N 38°27' W 009°44'611.5
2017-May-24 18:30N 38°22' W 009°41'611.4
2017-May-24 18:00N 38°16' W 009°39'611.6
2017-May-24 17:30N 38°11' W 009°36'611.7
2017-May-24 17:00N 38°06' W 009°33'611.5
2017-May-24 16:30N 38°00' W 009°29'611.2
2017-May-24 16:00N 37°55' W 009°27'611.6
2017-May-24 15:30N 37°50' W 009°24'611.4
2017-May-24 15:00N 37°45' W 009°21'611.4
2017-May-24 14:30N 37°40' W 009°17'5 5.5
2017-May-24 13:30N 37°35' W 009°13'1 1.1
2017-May-24 13:00N 37°36' W 009°13'1 1.0
2017-May-24 12:30N 37°36' W 009°13'1 1.1
2017-May-24 12:00N 37°37' W 009°12'1 1.1
2017-May-24 11:30N 37°37' W 009°12'1 1.1
2017-May-24 11:00N 37°38' W 009°12'1 1.0
2017-May-24 10:30N 37°38' W 009°12'0 1.0
2017-May-24 10:00N 37°39' W 009°11'1 1.0
2017-May-24 09:30N 37°39' W 009°11'1 1.0
2017-May-24 09:00N 37°40' W 009°11'1 1.1
2017-May-24 08:30N 37°40' W 009°11'1 1.2
2017-May-24 08:00N 37°41' W 009°11'1 1.1
2017-May-24 07:30N 37°41' W 009°12'1 1.3
2017-May-24 07:00N 37°42' W 009°12'1 1.4
2017-May-24 06:30N 37°43' W 009°12'1 1.4
2017-May-24 06:00N 37°43' W 009°13'1 1.3
2017-May-24 05:30N 37°44' W 009°13'1 1.2
2017-May-24 05:00N 37°44' W 009°13'1 1.1
2017-May-24 04:30N 37°45' W 009°14'1 1.0
2017-May-24 04:00N 37°45' W 009°14'1 1.1
2017-May-24 03:30N 37°46' W 009°14'1 1.1
2017-May-24 03:00N 37°46' W 009°15'1 1.0
2017-May-24 02:30N 37°46' W 009°16'0 0.9
2017-May-24 02:00N 37°46' W 009°16'0 0.9
2017-May-24 01:30N 37°46' W 009°17'0 0.6
2017-May-24 01:00N 37°46' W 009°17'0 0.4
2017-May-24 00:30N 37°46' W 009°17'0 0.5
2017-May-24 00:00N 37°47' W 009°17'0 0.5
2017-May-23 23:30N 37°47' W 009°18'0 0.9
2017-May-23 23:00N 37°47' W 009°18'1 1.0
2017-May-23 22:30N 37°48' W 009°17'1 1.1
2017-May-23 22:00N 37°48' W 009°17'1 1.2
2017-May-23 21:30N 37°49' W 009°17'1 1.4
2017-May-23 21:00N 37°50' W 009°17'1 1.5
2017-May-23 20:30N 37°50' W 009°17'1 1.5
2017-May-23 20:00N 37°51' W 009°17'1 1.5
2017-May-23 19:30N 37°52' W 009°17'1 1.6
2017-May-23 19:00N 37°53' W 009°17'1 1.6
2017-May-23 18:30N 37°53' W 009°17'1 1.6
2017-May-23 18:00N 37°54' W 009°17'1 1.4
2017-May-23 17:30N 37°55' W 009°17'1 1.5
2017-May-23 17:00N 37°56' W 009°18'1 1.4
2017-May-23 16:30N 37°56' W 009°18'1 1.5
2017-May-23 16:00N 37°57' W 009°18'1 1.4
2017-May-23 15:30N 37°58' W 009°18'1 1.5
2017-May-23 15:00N 37°58' W 009°18'1 1.5
2017-May-23 14:30N 37°59' W 009°19'1 1.4
2017-May-23 13:30N 38°01' W 009°19'1 1.2
2017-May-23 13:00N 38°01' W 009°19'1 1.1
2017-May-23 12:30N 38°02' W 009°19'2 3.3
2017-May-23 12:00N 38°02' W 009°17'510.0
2017-May-23 11:30N 38°02' W 009°10'2 3.6
2017-May-23 11:00N 38°01' W 009°08'1 1.1
2017-May-23 10:30N 38°01' W 009°09'1 1.2
2017-May-23 10:00N 38°02' W 009°10'1 1.2
2017-May-23 09:30N 38°02' W 009°10'1 1.2
2017-May-23 09:00N 38°02' W 009°11'1 1.1
2017-May-23 08:30N 38°03' W 009°12'1 1.1
2017-May-23 08:00N 38°03' W 009°12'1 1.1
2017-May-23 07:00N 38°03' W 009°13'0 0.8
2017-May-23 06:30N 38°03' W 009°14'1 2.4
2017-May-23 06:00N 38°02' W 009°14'3 5.8
2017-May-23 05:30N 37°59' W 009°15'3 5.8
2017-May-23 05:00N 37°56' W 009°15'3 5.7
2017-May-23 04:30N 37°53' W 009°15'3 5.5
2017-May-23 04:00N 37°51' W 009°16'3 5.4
2017-May-23 03:30N 37°48' W 009°16'3 5.4
2017-May-23 03:00N 37°45' W 009°16'3 5.2
2017-May-23 02:30N 37°43' W 009°16'3 5.0
2017-May-23 02:00N 37°40' W 009°17'2 4.9
2017-May-23 01:30N 37°38' W 009°17'2 4.6
2017-May-23 01:00N 37°35' W 009°17'2 4.7
2017-May-23 00:30N 37°33' W 009°18'2 4.7
2017-May-23 00:00N 37°31' W 009°18'2 4.3
2017-May-22 23:30N 37°28' W 009°18'2 4.3
2017-May-22 23:00N 37°26' W 009°18'2 3.7
2017-May-22 22:30N 37°25' W 009°20'2 5.0
2017-May-22 22:00N 37°25' W 009°23'3 5.0
2017-May-22 21:30N 37°25' W 009°26'3 5.1
2017-May-22 21:00N 37°25' W 009°29'1 2.7
2017-May-22 20:30N 37°26' W 009°30'1 2.6
2017-May-22 20:00N 37°27' W 009°29'1 2.6
2017-May-22 19:30N 37°28' W 009°29'1 2.7
2017-May-22 19:00N 37°30' W 009°29'1 2.7
2017-May-22 18:30N 37°31' W 009°28'1 2.7
2017-May-22 18:00N 37°32' W 009°27'1 2.6
2017-May-22 17:30N 37°33' W 009°27'1 2.4
2017-May-22 17:00N 37°35' W 009°26'1 2.4
2017-May-22 16:30N 37°36' W 009°26'1 2.1
2017-May-22 16:00N 37°37' W 009°25'5 9.7
2017-May-22 15:30N 37°35' W 009°19'611.4
2017-May-22 15:00N 37°35' W 009°12'4 3.6
2017-May-22 14:00N 37°35' W 009°07'1 1.5
2017-May-22 13:30N 37°35' W 009°08'1 1.5
2017-May-22 13:00N 37°35' W 009°09'1 1.3
2017-May-22 12:28N 37°36' W 009°10'1 1.2
2017-May-22 12:00N 37°36' W 009°11'1 1.2
2017-May-22 11:30N 37°36' W 009°11'1 1.1
2017-May-22 11:00N 37°36' W 009°12'1 1.0
2017-May-22 10:30N 37°37' W 009°12'1 1.0
2017-May-22 10:00N 37°37' W 009°13'1 1.2
2017-May-22 09:30N 37°37' W 009°14'1 1.3
2017-May-22 09:00N 37°38' W 009°14'1 1.2
2017-May-22 08:30N 37°38' W 009°15'1 1.1
2017-May-22 08:00N 37°38' W 009°16'1 1.1
2017-May-22 07:30N 37°38' W 009°16'0 0.9
2017-May-22 07:00N 37°38' W 009°17'0 0.9
2017-May-22 06:30N 37°39' W 009°17'0 0.9
2017-May-22 06:00N 37°39' W 009°18'0 0.8
2017-May-22 05:30N 37°39' W 009°18'0 0.7
2017-May-22 04:57N 37°39' W 009°19'0 0.7
2017-May-22 04:30N 37°39' W 009°19'0 0.7
2017-May-22 04:00N 37°39' W 009°20'0 0.9
2017-May-22 03:30N 37°40' W 009°20'0 0.9
2017-May-22 03:00N 37°40' W 009°21'1 1.0
2017-May-22 02:30N 37°40' W 009°21'0 1.0
2017-May-22 02:00N 37°41' W 009°21'0 1.0
2017-May-22 01:30N 37°41' W 009°22'0 0.9
2017-May-22 01:00N 37°41' W 009°22'0 1.0
2017-May-22 00:30N 37°42' W 009°23'0 1.0
2017-May-22 00:00N 37°42' W 009°23'1 1.0
2017-May-21 23:30N 37°42' W 009°24'1 1.0
2017-May-21 23:00N 37°42' W 009°24'1 1.0
2017-May-21 22:30N 37°42' W 009°25'1 1.1
2017-May-21 22:00N 37°42' W 009°26'1 1.0
2017-May-21 21:30N 37°42' W 009°26'1 1.1
2017-May-21 21:00N 37°43' W 009°27'1 1.2
2017-May-21 20:30N 37°43' W 009°28'1 1.1
2017-May-21 20:00N 37°43' W 009°29'1 1.1
2017-May-21 19:30N 37°43' W 009°29'1 1.1
2017-May-21 19:00N 37°43' W 009°30'1 1.1
2017-May-21 18:30N 37°43' W 009°31'1 1.1
2017-May-21 17:59N 37°43' W 009°31'0 0.9
2017-May-21 17:30N 37°43' W 009°32'0 0.6
2017-May-21 17:00N 37°43' W 009°32'0 0.5
2017-May-21 16:26N 37°43' W 009°33'0 0.4
2017-May-21 16:00N 37°43' W 009°33'0 0.5
2017-May-21 15:28N 37°42' W 009°33'0 0.6
2017-May-21 15:00N 37°42' W 009°32'0 0.7
2017-May-21 14:21N 37°42' W 009°32'1 0.9
2017-May-21 13:30N 37°41' W 009°32'1 1.2
2017-May-21 13:00N 37°41' W 009°31'1 1.3
2017-May-21 12:30N 37°40' W 009°30'1 1.4
2017-May-21 12:00N 37°40' W 009°30'1 1.7
2017-May-21 11:30N 37°40' W 009°29'1 1.7
2017-May-21 11:00N 37°39' W 009°28'1 1.6
2017-May-21 10:30N 37°39' W 009°27'1 1.4
2017-May-21 10:00N 37°39' W 009°26'1 1.2
2017-May-21 09:30N 37°39' W 009°25'1 0.5
2017-May-21 08:23N 37°38' W 009°25'0 0.1
2017-May-21 08:00N 37°38' W 009°25'0 0.3
2017-May-21 07:30N 37°38' W 009°25'1 1.0
2017-May-21 07:00N 37°38' W 009°24'0 0.8
2017-May-21 06:28N 37°39' W 009°24'0 0.6
2017-May-21 06:00N 37°39' W 009°24'0 0.7
2017-May-21 05:30N 37°39' W 009°24'0 0.7
2017-May-21 05:00N 37°40' W 009°24'0 0.9
2017-May-21 04:30N 37°40' W 009°24'0 0.9
2017-May-21 04:00N 37°41' W 009°23'0 1.0
2017-May-21 03:30N 37°41' W 009°23'0 0.9
2017-May-21 03:00N 37°41' W 009°23'1 1.1
2017-May-21 02:30N 37°42' W 009°23'1 1.1
2017-May-21 02:00N 37°42' W 009°22'1 1.1
2017-May-21 01:30N 37°43' W 009°22'1 1.2
2017-May-21 01:00N 37°44' W 009°22'1 1.1
2017-May-21 00:30N 37°44' W 009°22'1 1.1
2017-May-21 00:00N 37°45' W 009°22'1 1.1
2017-May-20 23:30N 37°45' W 009°22'1 1.0
2017-May-20 23:00N 37°46' W 009°22'1 1.1
2017-May-20 22:30N 37°46' W 009°22'1 1.1
2017-May-20 22:00N 37°47' W 009°21'1 1.1
2017-May-20 21:30N 37°47' W 009°21'1 1.5
2017-May-20 21:00N 37°48' W 009°21'1 1.5
2017-May-20 20:30N 37°49' W 009°21'1 1.2
2017-May-20 20:00N 37°49' W 009°21'1 1.3
2017-May-20 19:30N 37°50' W 009°21'1 1.6
2017-May-20 19:00N 37°51' W 009°20'1 1.8
2017-May-20 18:30N 37°52' W 009°20'1 1.7
2017-May-20 18:00N 37°52' W 009°19'1 2.5
2017-May-20 17:30N 37°53' W 009°18'611.1
2017-May-20 17:00N 37°57' W 009°13'3 5.4
2017-May-20 16:30N 37°59' W 009°12'1 1.7
2017-May-20 16:00N 38°00' W 009°13'1 1.6
2017-May-20 15:30N 38°01' W 009°13'1 1.5
2017-May-20 15:00N 38°01' W 009°14'1 1.6
2017-May-20 14:30N 38°01' W 009°15'1 1.3
2017-May-20 13:30N 38°02' W 009°16'1 1.2
2017-May-20 13:00N 38°03' W 009°17'0 0.9
2017-May-20 12:30N 38°03' W 009°17'3 5.1
2017-May-20 12:00N 38°03' W 009°14'4 7.0
2017-May-20 11:30N 38°02' W 009°10'1 1.4
2017-May-20 11:00N 38°03' W 009°10'1 1.6
2017-May-20 10:30N 38°04' W 009°11'1 1.5
2017-May-20 10:00N 38°04' W 009°11'1 1.5
2017-May-20 09:30N 38°05' W 009°12'1 1.6
2017-May-20 09:00N 38°06' W 009°12'1 1.6
2017-May-20 08:30N 38°06' W 009°13'1 1.5
2017-May-20 08:00N 38°07' W 009°13'1 1.5
2017-May-20 07:30N 38°08' W 009°13'1 1.4
2017-May-20 07:00N 38°08' W 009°14'1 1.5
2017-May-20 06:30N 38°09' W 009°14'1 2.0
2017-May-20 06:00N 38°10' W 009°14'1 2.8
2017-May-20 05:30N 38°12' W 009°14'3 5.2
2017-May-20 05:00N 38°09' W 009°15'3 5.0
2017-May-20 04:30N 38°06' W 009°15'3 5.1
2017-May-20 04:00N 38°04' W 009°15'3 5.3
2017-May-20 03:30N 38°01' W 009°15'3 5.3
2017-May-20 03:00N 37°59' W 009°15'2 4.9
2017-May-20 02:30N 37°56' W 009°15'2 4.8
2017-May-20 02:00N 37°54' W 009°15'2 4.6
2017-May-20 01:30N 37°51' W 009°15'2 4.5
2017-May-20 01:00N 37°49' W 009°15'  

Dump ship's entire track history